sensor_id;sensor_type;location;lat;lon;timestamp;P1;durP1;ratioP1;P2;durP2;ratioP2
12005;SDS011;6062;47.294;12.182;2022-09-03T00:00:04;0.98;;;0.93;;
12005;SDS011;6062;47.294;12.182;2022-09-03T00:02:41;1.45;;;1.10;;
12005;SDS011;6062;47.294;12.182;2022-09-03T00:05:24;1.10;;;1.00;;
12005;SDS011;6062;47.294;12.182;2022-09-03T00:08:03;1.42;;;1.25;;
12005;SDS011;6062;47.294;12.182;2022-09-03T00:14:04;1.85;;;1.00;;
12005;SDS011;6062;47.294;12.182;2022-09-03T00:17:23;1.23;;;1.02;;
12005;SDS011;6062;47.294;12.182;2022-09-03T00:19:52;1.10;;;1.00;;
12005;SDS011;6062;47.294;12.182;2022-09-03T00:22:26;1.30;;;1.20;;
12005;SDS011;6062;47.294;12.182;2022-09-03T00:25:01;1.08;;;0.98;;
12005;SDS011;6062;47.294;12.182;2022-09-03T00:27:32;1.05;;;0.95;;
12005;SDS011;6062;47.294;12.182;2022-09-03T00:30:05;1.00;;;0.90;;
12005;SDS011;6062;47.294;12.182;2022-09-03T00:32:47;1.92;;;1.10;;
12005;SDS011;6062;47.294;12.182;2022-09-03T00:35:32;1.00;;;0.85;;
12005;SDS011;6062;47.294;12.182;2022-09-03T00:38:14;1.10;;;1.00;;
12005;SDS011;6062;47.294;12.182;2022-09-03T01:01:04;1.15;;;0.90;;
12005;SDS011;6062;47.294;12.182;2022-09-03T01:06:29;1.20;;;1.10;;
12005;SDS011;6062;47.294;12.182;2022-09-03T01:15:23;0.85;;;0.85;;
12005;SDS011;6062;47.294;12.182;2022-09-03T01:18:24;1.10;;;1.00;;
12005;SDS011;6062;47.294;12.182;2022-09-03T01:21:39;1.25;;;1.00;;
12005;SDS011;6062;47.294;12.182;2022-09-03T01:24:38;1.35;;;0.90;;
12005;SDS011;6062;47.294;12.182;2022-09-03T01:30:16;1.23;;;0.93;;
12005;SDS011;6062;47.294;12.182;2022-09-03T01:32:58;1.20;;;1.00;;
12005;SDS011;6062;47.294;12.182;2022-09-03T01:35:47;2.00;;;0.80;;
12005;SDS011;6062;47.294;12.182;2022-09-03T01:47:09;2.15;;;1.00;;
12005;SDS011;6062;47.294;12.182;2022-09-03T02:01:01;0.85;;;0.85;;
12005;SDS011;6062;47.294;12.182;2022-09-03T02:03:37;1.73;;;0.90;;
12005;SDS011;6062;47.294;12.182;2022-09-03T02:06:09;1.45;;;0.90;;
12005;SDS011;6062;47.294;12.182;2022-09-03T02:08:36;1.02;;;0.85;;
12005;SDS011;6062;47.294;12.182;2022-09-03T02:11:03;0.95;;;0.90;;
12005;SDS011;6062;47.294;12.182;2022-09-03T02:13:41;1.33;;;1.00;;
12005;SDS011;6062;47.294;12.182;2022-09-03T02:16:22;1.58;;;1.08;;
12005;SDS011;6062;47.294;12.182;2022-09-03T02:18:56;1.10;;;1.00;;
12005;SDS011;6062;47.294;12.182;2022-09-03T02:21:30;1.80;;;1.25;;
12005;SDS011;6062;47.294;12.182;2022-09-03T02:24:01;1.20;;;1.10;;
12005;SDS011;6062;47.294;12.182;2022-09-03T02:26:29;1.13;;;1.02;;
12005;SDS011;6062;47.294;12.182;2022-09-03T02:28:55;2.95;;;1.20;;
12005;SDS011;6062;47.294;12.182;2022-09-03T02:31:22;1.10;;;1.00;;
12005;SDS011;6062;47.294;12.182;2022-09-03T02:33:49;1.20;;;1.00;;
12005;SDS011;6062;47.294;12.182;2022-09-03T02:36:17;1.20;;;1.00;;
12005;SDS011;6062;47.294;12.182;2022-09-03T02:38:49;1.30;;;1.13;;
12005;SDS011;6062;47.294;12.182;2022-09-03T02:41:15;1.20;;;1.00;;
12005;SDS011;6062;47.294;12.182;2022-09-03T02:43:46;1.45;;;1.10;;
12005;SDS011;6062;47.294;12.182;2022-09-03T02:46:32;1.15;;;1.05;;
12005;SDS011;6062;47.294;12.182;2022-09-03T02:49:12;0.93;;;0.93;;
12005;SDS011;6062;47.294;12.182;2022-09-03T02:51:39;0.98;;;0.90;;
12005;SDS011;6062;47.294;12.182;2022-09-03T02:54:07;1.10;;;1.00;;
12005;SDS011;6062;47.294;12.182;2022-09-03T02:56:34;1.13;;;1.02;;
12005;SDS011;6062;47.294;12.182;2022-09-03T02:59:01;1.33;;;1.10;;
12005;SDS011;6062;47.294;12.182;2022-09-03T03:01:29;1.50;;;1.10;;
12005;SDS011;6062;47.294;12.182;2022-09-03T03:03:55;0.90;;;0.90;;
12005;SDS011;6062;47.294;12.182;2022-09-03T03:06:21;1.13;;;1.02;;
12005;SDS011;6062;47.294;12.182;2022-09-03T03:08:48;1.20;;;1.10;;
12005;SDS011;6062;47.294;12.182;2022-09-03T03:11:15;1.08;;;0.98;;
12005;SDS011;6062;47.294;12.182;2022-09-03T03:13:42;1.10;;;1.00;;
12005;SDS011;6062;47.294;12.182;2022-09-03T03:16:10;0.98;;;0.90;;
12005;SDS011;6062;47.294;12.182;2022-09-03T03:18:37;1.00;;;0.90;;
12005;SDS011;6062;47.294;12.182;2022-09-03T03:21:07;1.13;;;1.02;;
12005;SDS011;6062;47.294;12.182;2022-09-03T03:23:36;1.40;;;1.27;;
12005;SDS011;6062;47.294;12.182;2022-09-03T03:26:04;1.00;;;0.93;;
12005;SDS011;6062;47.294;12.182;2022-09-03T03:28:36;1.63;;;1.10;;
12005;SDS011;6062;47.294;12.182;2022-09-03T03:31:09;1.92;;;1.33;;
12005;SDS011;6062;47.294;12.182;2022-09-03T03:33:41;1.50;;;1.23;;
12005;SDS011;6062;47.294;12.182;2022-09-03T03:36:08;1.15;;;1.05;;
12005;SDS011;6062;47.294;12.182;2022-09-03T03:38:38;1.98;;;1.10;;
12005;SDS011;6062;47.294;12.182;2022-09-03T03:41:08;0.98;;;0.90;;
12005;SDS011;6062;47.294;12.182;2022-09-03T03:43:36;1.20;;;1.10;;
12005;SDS011;6062;47.294;12.182;2022-09-03T03:46:02;1.20;;;1.10;;
12005;SDS011;6062;47.294;12.182;2022-09-03T03:48:27;1.10;;;1.00;;
12005;SDS011;6062;47.294;12.182;2022-09-03T03:50:53;1.38;;;1.00;;
12005;SDS011;6062;47.294;12.182;2022-09-03T03:53:19;0.80;;;0.80;;
12005;SDS011;6062;47.294;12.182;2022-09-03T03:55:57;0.93;;;0.90;;
12005;SDS011;6062;47.294;12.182;2022-09-03T03:58:26;0.90;;;0.90;;
12005;SDS011;6062;47.294;12.182;2022-09-03T04:00:54;1.00;;;0.88;;
12005;SDS011;6062;47.294;12.182;2022-09-03T04:03:27;1.00;;;0.90;;
12005;SDS011;6062;47.294;12.182;2022-09-03T04:05:53;0.90;;;0.90;;
12005;SDS011;6062;47.294;12.182;2022-09-03T04:08:26;1.10;;;1.00;;
12005;SDS011;6062;47.294;12.182;2022-09-03T04:10:53;1.00;;;0.93;;
12005;SDS011;6062;47.294;12.182;2022-09-03T04:13:22;1.05;;;0.95;;
12005;SDS011;6062;47.294;12.182;2022-09-03T04:15:48;1.10;;;1.00;;
12005;SDS011;6062;47.294;12.182;2022-09-03T04:18:14;1.20;;;1.00;;
12005;SDS011;6062;47.294;12.182;2022-09-03T04:20:40;1.40;;;1.00;;
12005;SDS011;6062;47.294;12.182;2022-09-03T04:23:05;1.00;;;0.90;;
12005;SDS011;6062;47.294;12.182;2022-09-03T04:25:31;0.90;;;0.80;;
12005;SDS011;6062;47.294;12.182;2022-09-03T04:27:57;0.80;;;0.80;;
12005;SDS011;6062;47.294;12.182;2022-09-03T04:30:23;1.23;;;1.13;;
12005;SDS011;6062;47.294;12.182;2022-09-03T04:32:49;1.05;;;0.95;;
12005;SDS011;6062;47.294;12.182;2022-09-03T04:35:22;0.80;;;0.80;;
12005;SDS011;6062;47.294;12.182;2022-09-03T04:37:53;2.25;;;0.98;;
12005;SDS011;6062;47.294;12.182;2022-09-03T04:40:19;1.02;;;0.90;;
12005;SDS011;6062;47.294;12.182;2022-09-03T04:42:45;1.10;;;1.00;;
12005;SDS011;6062;47.294;12.182;2022-09-03T04:45:10;1.17;;;1.05;;
12005;SDS011;6062;47.294;12.182;2022-09-03T04:47:39;1.00;;;0.90;;
12005;SDS011;6062;47.294;12.182;2022-09-03T04:50:06;1.10;;;1.00;;
12005;SDS011;6062;47.294;12.182;2022-09-03T04:52:32;1.30;;;1.20;;
12005;SDS011;6062;47.294;12.182;2022-09-03T04:54:58;0.98;;;0.88;;
12005;SDS011;6062;47.294;12.182;2022-09-03T04:57:25;1.02;;;0.95;;
12005;SDS011;6062;47.294;12.182;2022-09-03T04:59:51;1.10;;;1.00;;
12005;SDS011;6062;47.294;12.182;2022-09-03T05:02:17;0.80;;;0.80;;
12005;SDS011;6062;47.294;12.182;2022-09-03T05:04:45;1.25;;;0.90;;
12005;SDS011;6062;47.294;12.182;2022-09-03T05:07:11;1.10;;;0.90;;
12005;SDS011;6062;47.294;12.182;2022-09-03T05:09:37;1.20;;;0.98;;
12005;SDS011;6062;47.294;12.182;2022-09-03T05:12:02;1.30;;;0.90;;
12005;SDS011;6062;47.294;12.182;2022-09-03T05:14:28;1.13;;;1.00;;
12005;SDS011;6062;47.294;12.182;2022-09-03T05:16:54;1.30;;;0.98;;
12005;SDS011;6062;47.294;12.182;2022-09-03T05:19:19;2.17;;;1.00;;
12005;SDS011;6062;47.294;12.182;2022-09-03T05:21:45;1.27;;;1.17;;
12005;SDS011;6062;47.294;12.182;2022-09-03T05:24:11;1.40;;;1.30;;
12005;SDS011;6062;47.294;12.182;2022-09-03T05:26:38;3.55;;;3.25;;
12005;SDS011;6062;47.294;12.182;2022-09-03T05:29:05;8.38;;;4.88;;
12005;SDS011;6062;47.294;12.182;2022-09-03T05:31:32;3.08;;;2.75;;
12005;SDS011;6062;47.294;12.182;2022-09-03T05:34:02;2.22;;;2.00;;
12005;SDS011;6062;47.294;12.182;2022-09-03T05:36:31;1.88;;;1.48;;
12005;SDS011;6062;47.294;12.182;2022-09-03T05:39:00;1.10;;;1.00;;
12005;SDS011;6062;47.294;12.182;2022-09-03T05:41:26;1.30;;;1.20;;
12005;SDS011;6062;47.294;12.182;2022-09-03T05:43:53;1.00;;;1.00;;
12005;SDS011;6062;47.294;12.182;2022-09-03T05:46:23;2.13;;;1.70;;
12005;SDS011;6062;47.294;12.182;2022-09-03T05:48:58;2.28;;;1.48;;
12005;SDS011;6062;47.294;12.182;2022-09-03T05:51:29;3.22;;;2.72;;
12005;SDS011;6062;47.294;12.182;2022-09-03T05:53:58;5.20;;;4.70;;
12005;SDS011;6062;47.294;12.182;2022-09-03T05:56:24;3.63;;;3.20;;
12005;SDS011;6062;47.294;12.182;2022-09-03T05:58:54;8.73;;;2.25;;
12005;SDS011;6062;47.294;12.182;2022-09-03T06:01:26;3.83;;;2.00;;
12005;SDS011;6062;47.294;12.182;2022-09-03T06:03:59;15.32;;;6.90;;
12005;SDS011;6062;47.294;12.182;2022-09-03T06:06:26;9.52;;;4.60;;
12005;SDS011;6062;47.294;12.182;2022-09-03T06:08:59;25.35;;;10.43;;
12005;SDS011;6062;47.294;12.182;2022-09-03T06:11:29;23.23;;;10.95;;
12005;SDS011;6062;47.294;12.182;2022-09-03T06:13:59;19.08;;;9.15;;
12005;SDS011;6062;47.294;12.182;2022-09-03T06:16:29;12.60;;;5.85;;
12005;SDS011;6062;47.294;12.182;2022-09-03T06:18:56;3.65;;;2.38;;
12005;SDS011;6062;47.294;12.182;2022-09-03T06:21:22;6.05;;;3.00;;
12005;SDS011;6062;47.294;12.182;2022-09-03T06:23:51;3.75;;;2.13;;
12005;SDS011;6062;47.294;12.182;2022-09-03T06:26:21;9.68;;;4.70;;
12005;SDS011;6062;47.294;12.182;2022-09-03T06:28:48;2.03;;;1.58;;
12005;SDS011;6062;47.294;12.182;2022-09-03T06:31:15;1.42;;;1.33;;
12005;SDS011;6062;47.294;12.182;2022-09-03T06:33:43;1.58;;;1.20;;
12005;SDS011;6062;47.294;12.182;2022-09-03T06:36:12;1.73;;;1.20;;
12005;SDS011;6062;47.294;12.182;2022-09-03T06:38:43;1.20;;;1.10;;
12005;SDS011;6062;47.294;12.182;2022-09-03T06:41:11;1.02;;;0.93;;
12005;SDS011;6062;47.294;12.182;2022-09-03T06:43:49;2.35;;;1.02;;
12005;SDS011;6062;47.294;12.182;2022-09-03T06:46:18;1.20;;;1.10;;
12005;SDS011;6062;47.294;12.182;2022-09-03T06:48:46;4.97;;;2.30;;
12005;SDS011;6062;47.294;12.182;2022-09-03T06:51:16;7.43;;;3.15;;
12005;SDS011;6062;47.294;12.182;2022-09-03T06:53:45;5.43;;;2.55;;
12005;SDS011;6062;47.294;12.182;2022-09-03T06:56:15;2.05;;;1.60;;
12005;SDS011;6062;47.294;12.182;2022-09-03T06:58:56;2.30;;;1.30;;
12005;SDS011;6062;47.294;12.182;2022-09-03T07:01:26;2.80;;;1.27;;
12005;SDS011;6062;47.294;12.182;2022-09-03T07:03:56;1.20;;;1.00;;
12005;SDS011;6062;47.294;12.182;2022-09-03T07:06:25;3.08;;;1.25;;
12005;SDS011;6062;47.294;12.182;2022-09-03T07:08:55;1.30;;;1.20;;
12005;SDS011;6062;47.294;12.182;2022-09-03T07:11:22;1.20;;;1.10;;
12005;SDS011;6062;47.294;12.182;2022-09-03T07:13:51;1.15;;;1.00;;
12005;SDS011;6062;47.294;12.182;2022-09-03T07:16:24;0.93;;;0.85;;
12005;SDS011;6062;47.294;12.182;2022-09-03T07:18:56;1.02;;;0.90;;
12005;SDS011;6062;47.294;12.182;2022-09-03T07:21:23;1.27;;;1.00;;
12005;SDS011;6062;47.294;12.182;2022-09-03T07:23:50;1.33;;;1.00;;
12005;SDS011;6062;47.294;12.182;2022-09-03T07:26:19;1.23;;;0.95;;
12005;SDS011;6062;47.294;12.182;2022-09-03T07:28:57;1.92;;;1.20;;
12005;SDS011;6062;47.294;12.182;2022-09-03T07:31:28;1.30;;;1.10;;
12005;SDS011;6062;47.294;12.182;2022-09-03T07:34:04;1.40;;;1.17;;
12005;SDS011;6062;47.294;12.182;2022-09-03T07:36:36;1.10;;;0.98;;
12005;SDS011;6062;47.294;12.182;2022-09-03T07:39:06;0.85;;;0.85;;
12005;SDS011;6062;47.294;12.182;2022-09-03T07:41:35;1.15;;;0.88;;
12005;SDS011;6062;47.294;12.182;2022-09-03T07:44:01;1.20;;;1.10;;
12005;SDS011;6062;47.294;12.182;2022-09-03T07:46:32;1.25;;;0.90;;
12005;SDS011;6062;47.294;12.182;2022-09-03T07:49:01;2.38;;;1.05;;
12005;SDS011;6062;47.294;12.182;2022-09-03T07:51:30;1.20;;;0.90;;
12005;SDS011;6062;47.294;12.182;2022-09-03T07:54:00;0.80;;;0.80;;
12005;SDS011;6062;47.294;12.182;2022-09-03T07:56:30;0.88;;;0.80;;
12005;SDS011;6062;47.294;12.182;2022-09-03T07:58:59;1.15;;;0.90;;
12005;SDS011;6062;47.294;12.182;2022-09-03T08:01:26;1.55;;;1.20;;
12005;SDS011;6062;47.294;12.182;2022-09-03T08:03:55;1.63;;;1.13;;
12005;SDS011;6062;47.294;12.182;2022-09-03T08:06:22;1.55;;;1.20;;
12005;SDS011;6062;47.294;12.182;2022-09-03T08:08:55;0.80;;;0.80;;
12005;SDS011;6062;47.294;12.182;2022-09-03T08:11:35;1.17;;;1.08;;
12005;SDS011;6062;47.294;12.182;2022-09-03T08:14:05;1.13;;;0.98;;
12005;SDS011;6062;47.294;12.182;2022-09-03T08:16:36;1.15;;;0.93;;
12005;SDS011;6062;47.294;12.182;2022-09-03T08:19:14;1.25;;;0.98;;
12005;SDS011;6062;47.294;12.182;2022-09-03T08:21:42;1.58;;;1.00;;
12005;SDS011;6062;47.294;12.182;2022-09-03T08:24:08;1.13;;;0.90;;
12005;SDS011;6062;47.294;12.182;2022-09-03T08:26:37;1.15;;;0.95;;
12005;SDS011;6062;47.294;12.182;2022-09-03T08:29:06;1.23;;;1.00;;
12005;SDS011;6062;47.294;12.182;2022-09-03T08:31:32;1.60;;;1.20;;
12005;SDS011;6062;47.294;12.182;2022-09-03T08:34:00;1.20;;;1.10;;
12005;SDS011;6062;47.294;12.182;2022-09-03T08:36:30;1.10;;;1.00;;
12005;SDS011;6062;47.294;12.182;2022-09-03T08:39:00;1.50;;;1.00;;
12005;SDS011;6062;47.294;12.182;2022-09-03T08:46:50;1.30;;;1.20;;
12005;SDS011;6062;47.294;12.182;2022-09-03T08:49:37;3.33;;;1.30;;
12005;SDS011;6062;47.294;12.182;2022-09-03T08:57:56;3.70;;;1.60;;
12005;SDS011;6062;47.294;12.182;2022-09-03T09:00:46;1.67;;;1.58;;
12005;SDS011;6062;47.294;12.182;2022-09-03T09:03:32;1.90;;;1.50;;
12005;SDS011;6062;47.294;12.182;2022-09-03T09:06:18;1.55;;;1.42;;
12005;SDS011;6062;47.294;12.182;2022-09-03T09:12:09;1.77;;;1.60;;
12005;SDS011;6062;47.294;12.182;2022-09-03T09:23:27;1.75;;;1.58;;
12005;SDS011;6062;47.294;12.182;2022-09-03T09:26:00;1.83;;;1.70;;
12005;SDS011;6062;47.294;12.182;2022-09-03T09:28:36;1.50;;;1.40;;
12005;SDS011;6062;47.294;12.182;2022-09-03T09:31:04;1.50;;;1.40;;
12005;SDS011;6062;47.294;12.182;2022-09-03T09:33:33;1.75;;;1.60;;
12005;SDS011;6062;47.294;12.182;2022-09-03T09:36:00;1.70;;;1.60;;
12005;SDS011;6062;47.294;12.182;2022-09-03T09:38:32;2.17;;;1.50;;
12005;SDS011;6062;47.294;12.182;2022-09-03T09:43:43;1.73;;;1.63;;
12005;SDS011;6062;47.294;12.182;2022-09-03T09:46:12;1.63;;;1.52;;
12005;SDS011;6062;47.294;12.182;2022-09-03T09:48:46;2.17;;;1.30;;
12005;SDS011;6062;47.294;12.182;2022-09-03T09:51:26;1.80;;;1.63;;
12005;SDS011;6062;47.294;12.182;2022-09-03T09:54:14;1.67;;;1.30;;
12005;SDS011;6062;47.294;12.182;2022-09-03T09:56:44;1.35;;;1.20;;
12005;SDS011;6062;47.294;12.182;2022-09-03T09:59:22;1.30;;;1.20;;
12005;SDS011;6062;47.294;12.182;2022-09-03T10:01:47;1.50;;;1.25;;
12005;SDS011;6062;47.294;12.182;2022-09-03T10:09:56;1.17;;;1.10;;
12005;SDS011;6062;47.294;12.182;2022-09-03T10:12:27;1.20;;;1.10;;
12005;SDS011;6062;47.294;12.182;2022-09-03T10:15:07;1.63;;;1.33;;
12005;SDS011;6062;47.294;12.182;2022-09-03T10:17:54;1.38;;;1.27;;
12005;SDS011;6062;47.294;12.182;2022-09-03T10:20:35;1.20;;;1.10;;
12005;SDS011;6062;47.294;12.182;2022-09-03T10:23:23;1.30;;;1.20;;
12005;SDS011;6062;47.294;12.182;2022-09-03T10:28:36;5.28;;;1.20;;
12005;SDS011;6062;47.294;12.182;2022-09-03T10:37:37;1.95;;;1.30;;
12005;SDS011;6062;47.294;12.182;2022-09-03T10:46:05;2.38;;;1.30;;
12005;SDS011;6062;47.294;12.182;2022-09-03T10:51:40;1.48;;;1.38;;
12005;SDS011;6062;47.294;12.182;2022-09-03T10:54:27;1.40;;;1.30;;
12005;SDS011;6062;47.294;12.182;2022-09-03T11:10:40;1.67;;;1.55;;
12005;SDS011;6062;47.294;12.182;2022-09-03T11:13:21;1.70;;;1.60;;
12005;SDS011;6062;47.294;12.182;2022-09-03T11:15:56;1.80;;;1.70;;
12005;SDS011;6062;47.294;12.182;2022-09-03T11:18:36;2.00;;;1.80;;
12005;SDS011;6062;47.294;12.182;2022-09-03T11:21:11;1.98;;;1.80;;
12005;SDS011;6062;47.294;12.182;2022-09-03T11:23:41;3.58;;;1.60;;
12005;SDS011;6062;47.294;12.182;2022-09-03T11:26:11;1.63;;;1.52;;
12005;SDS011;6062;47.294;12.182;2022-09-03T11:28:58;1.60;;;1.50;;
12005;SDS011;6062;47.294;12.182;2022-09-03T11:34:32;1.92;;;1.45;;
12005;SDS011;6062;47.294;12.182;2022-09-03T11:39:54;1.63;;;1.52;;
12005;SDS011;6062;47.294;12.182;2022-09-03T11:42:45;1.60;;;1.20;;
12005;SDS011;6062;47.294;12.182;2022-09-03T11:45:33;2.20;;;1.50;;
12005;SDS011;6062;47.294;12.182;2022-09-03T11:48:02;2.33;;;1.30;;
12005;SDS011;6062;47.294;12.182;2022-09-03T11:50:53;1.48;;;1.30;;
12005;SDS011;6062;47.294;12.182;2022-09-03T11:53:31;1.60;;;1.50;;
12005;SDS011;6062;47.294;12.182;2022-09-03T11:56:00;1.80;;;1.40;;
12005;SDS011;6062;47.294;12.182;2022-09-03T11:58:43;1.73;;;1.50;;
12005;SDS011;6062;47.294;12.182;2022-09-03T12:01:13;1.70;;;1.38;;
12005;SDS011;6062;47.294;12.182;2022-09-03T12:09:50;2.10;;;1.50;;
12005;SDS011;6062;47.294;12.182;2022-09-03T12:12:50;1.63;;;1.52;;
12005;SDS011;6062;47.294;12.182;2022-09-03T12:18:42;1.90;;;1.80;;
12005;SDS011;6062;47.294;12.182;2022-09-03T12:21:15;2.05;;;1.70;;
12005;SDS011;6062;47.294;12.182;2022-09-03T12:26:17;1.75;;;1.60;;
12005;SDS011;6062;47.294;12.182;2022-09-03T12:28:51;2.58;;;2.10;;
12005;SDS011;6062;47.294;12.182;2022-09-03T12:31:22;4.50;;;1.60;;
12005;SDS011;6062;47.294;12.182;2022-09-03T12:34:01;2.78;;;1.65;;
12005;SDS011;6062;47.294;12.182;2022-09-03T12:36:44;1.85;;;1.65;;
12005;SDS011;6062;47.294;12.182;2022-09-03T12:39:14;1.73;;;1.30;;
12005;SDS011;6062;47.294;12.182;2022-09-03T12:49:35;0.90;;;0.90;;
12005;SDS011;6062;47.294;12.182;2022-09-03T12:52:09;1.10;;;1.00;;
12005;SDS011;6062;47.294;12.182;2022-09-03T12:55:00;0.88;;;0.80;;
12005;SDS011;6062;47.294;12.182;2022-09-03T12:57:37;1.20;;;0.95;;
12005;SDS011;6062;47.294;12.182;2022-09-03T13:00:12;0.88;;;0.70;;
12005;SDS011;6062;47.294;12.182;2022-09-03T13:05:48;1.10;;;1.00;;
12005;SDS011;6062;47.294;12.182;2022-09-03T13:08:32;2.65;;;1.00;;
12005;SDS011;6062;47.294;12.182;2022-09-03T13:11:14;1.65;;;1.52;;
12005;SDS011;6062;47.294;12.182;2022-09-03T13:13:51;1.90;;;1.58;;
12005;SDS011;6062;47.294;12.182;2022-09-03T13:19:13;1.65;;;1.55;;
12005;SDS011;6062;47.294;12.182;2022-09-03T13:22:11;1.73;;;1.50;;
12005;SDS011;6062;47.294;12.182;2022-09-03T13:25:20;1.55;;;1.45;;
12005;SDS011;6062;47.294;12.182;2022-09-03T13:31:21;1.58;;;1.30;;
12005;SDS011;6062;47.294;12.182;2022-09-03T13:34:06;1.50;;;1.40;;
12005;SDS011;6062;47.294;12.182;2022-09-03T13:39:21;1.48;;;1.38;;
12005;SDS011;6062;47.294;12.182;2022-09-03T13:42:02;1.80;;;1.42;;
12005;SDS011;6062;47.294;12.182;2022-09-03T13:44:41;2.00;;;1.60;;
12005;SDS011;6062;47.294;12.182;2022-09-03T13:50:44;2.75;;;1.70;;
12005;SDS011;6062;47.294;12.182;2022-09-03T13:56:12;1.70;;;1.60;;
12005;SDS011;6062;47.294;12.182;2022-09-03T13:59:00;2.17;;;1.80;;
12005;SDS011;6062;47.294;12.182;2022-09-03T14:01:54;2.15;;;1.95;;
12005;SDS011;6062;47.294;12.182;2022-09-03T14:07:41;2.38;;;1.67;;
12005;SDS011;6062;47.294;12.182;2022-09-03T14:10:56;2.42;;;1.60;;
12005;SDS011;6062;47.294;12.182;2022-09-03T14:19:18;1.90;;;1.70;;
12005;SDS011;6062;47.294;12.182;2022-09-03T14:22:21;1.48;;;1.35;;
12005;SDS011;6062;47.294;12.182;2022-09-03T14:25:22;1.30;;;1.20;;
12005;SDS011;6062;47.294;12.182;2022-09-03T14:27:51;2.17;;;1.45;;
12005;SDS011;6062;47.294;12.182;2022-09-03T14:33:19;2.65;;;1.63;;
12005;SDS011;6062;47.294;12.182;2022-09-03T14:36:45;1.40;;;1.30;;
12005;SDS011;6062;47.294;12.182;2022-09-03T14:42:12;1.80;;;1.50;;
12005;SDS011;6062;47.294;12.182;2022-09-03T14:48:29;1.42;;;1.33;;
12005;SDS011;6062;47.294;12.182;2022-09-03T14:51:30;1.92;;;1.60;;
12005;SDS011;6062;47.294;12.182;2022-09-03T14:54:35;2.65;;;1.63;;
12005;SDS011;6062;47.294;12.182;2022-09-03T14:57:15;1.90;;;1.70;;
12005;SDS011;6062;47.294;12.182;2022-09-03T15:00:03;1.70;;;1.60;;
12005;SDS011;6062;47.294;12.182;2022-09-03T15:02:45;2.10;;;1.65;;
12005;SDS011;6062;47.294;12.182;2022-09-03T15:05:41;2.95;;;2.08;;
12005;SDS011;6062;47.294;12.182;2022-09-03T15:08:49;2.28;;;1.60;;
12005;SDS011;6062;47.294;12.182;2022-09-03T15:11:42;2.03;;;1.85;;
12005;SDS011;6062;47.294;12.182;2022-09-03T15:14:26;2.67;;;2.20;;
12005;SDS011;6062;47.294;12.182;2022-09-03T15:20:00;2.13;;;1.80;;
12005;SDS011;6062;47.294;12.182;2022-09-03T15:31:21;1.95;;;1.60;;
12005;SDS011;6062;47.294;12.182;2022-09-03T15:34:40;1.70;;;1.60;;
12005;SDS011;6062;47.294;12.182;2022-09-03T15:37:51;1.75;;;1.60;;
12005;SDS011;6062;47.294;12.182;2022-09-03T15:40:31;1.75;;;1.65;;
12005;SDS011;6062;47.294;12.182;2022-09-03T15:43:10;1.48;;;1.38;;
12005;SDS011;6062;47.294;12.182;2022-09-03T15:51:29;2.45;;;2.20;;
12005;SDS011;6062;47.294;12.182;2022-09-03T15:57:02;2.92;;;2.10;;
12005;SDS011;6062;47.294;12.182;2022-09-03T15:59:53;1.90;;;1.58;;
12005;SDS011;6062;47.294;12.182;2022-09-03T16:02:33;1.63;;;1.52;;
12005;SDS011;6062;47.294;12.182;2022-09-03T16:11:15;3.35;;;1.75;;
12005;SDS011;6062;47.294;12.182;2022-09-03T16:22:39;2.45;;;2.10;;
12005;SDS011;6062;47.294;12.182;2022-09-03T16:27:52;1.60;;;1.40;;
12005;SDS011;6062;47.294;12.182;2022-09-03T16:33:13;1.88;;;1.58;;
12005;SDS011;6062;47.294;12.182;2022-09-03T16:38:46;202.13;;;6.43;;
12005;SDS011;6062;47.294;12.182;2022-09-03T16:44:11;125.68;;;4.43;;
12005;SDS011;6062;47.294;12.182;2022-09-03T16:47:14;90.80;;;3.45;;
12005;SDS011;6062;47.294;12.182;2022-09-03T16:53:23;219.80;;;7.20;;
12005;SDS011;6062;47.294;12.182;2022-09-03T17:14:26;0.85;;;0.77;;
12005;SDS011;6062;47.294;12.182;2022-09-03T17:19:49;4.53;;;2.30;;
12005;SDS011;6062;47.294;12.182;2022-09-03T17:22:38;1.77;;;1.60;;
12005;SDS011;6062;47.294;12.182;2022-09-03T17:25:37;5.28;;;4.88;;
12005;SDS011;6062;47.294;12.182;2022-09-03T17:31:06;3.33;;;2.35;;
12005;SDS011;6062;47.294;12.182;2022-09-03T17:33:55;1.30;;;1.20;;
12005;SDS011;6062;47.294;12.182;2022-09-03T17:36:37;1.00;;;0.90;;
12005;SDS011;6062;47.294;12.182;2022-09-03T17:39:23;1.50;;;1.40;;
12005;SDS011;6062;47.294;12.182;2022-09-03T17:42:15;1.58;;;0.80;;
12005;SDS011;6062;47.294;12.182;2022-09-03T17:50:42;3.92;;;2.88;;
12005;SDS011;6062;47.294;12.182;2022-09-03T17:53:29;6.82;;;2.75;;
12005;SDS011;6062;47.294;12.182;2022-09-03T17:56:26;16.25;;;7.30;;
12005;SDS011;6062;47.294;12.182;2022-09-03T18:02:50;2.38;;;2.05;;
12005;SDS011;6062;47.294;12.182;2022-09-03T18:05:32;1.42;;;1.05;;
12005;SDS011;6062;47.294;12.182;2022-09-03T18:08:19;21.77;;;1.05;;
12005;SDS011;6062;47.294;12.182;2022-09-03T18:11:10;0.95;;;0.45;;
12005;SDS011;6062;47.294;12.182;2022-09-03T18:20:10;0.40;;;0.40;;
12005;SDS011;6062;47.294;12.182;2022-09-03T18:26:30;0.43;;;0.40;;
12005;SDS011;6062;47.294;12.182;2022-09-03T18:29:38;0.45;;;0.45;;
12005;SDS011;6062;47.294;12.182;2022-09-03T18:32:42;2.45;;;2.28;;
12005;SDS011;6062;47.294;12.182;2022-09-03T18:35:28;2.78;;;2.58;;
12005;SDS011;6062;47.294;12.182;2022-09-03T18:38:14;1.30;;;1.20;;
12005;SDS011;6062;47.294;12.182;2022-09-03T18:41:11;0.60;;;0.60;;
12005;SDS011;6062;47.294;12.182;2022-09-03T18:56:42;4.05;;;3.75;;
12005;SDS011;6062;47.294;12.182;2022-09-03T18:59:37;2.22;;;1.92;;
12005;SDS011;6062;47.294;12.182;2022-09-03T19:05:55;7.28;;;5.95;;
12005;SDS011;6062;47.294;12.182;2022-09-03T19:15:25;4.22;;;3.10;;
12005;SDS011;6062;47.294;12.182;2022-09-03T19:21:26;1.20;;;1.10;;
12005;SDS011;6062;47.294;12.182;2022-09-03T19:24:19;81.68;;;2.80;;
12005;SDS011;6062;47.294;12.182;2022-09-03T19:30:51;1.05;;;0.95;;
12005;SDS011;6062;47.294;12.182;2022-09-03T19:36:55;0.80;;;0.80;;
12005;SDS011;6062;47.294;12.182;2022-09-03T19:50:03;8.52;;;6.80;;
12005;SDS011;6062;47.294;12.182;2022-09-03T19:53:06;8.98;;;7.68;;
12005;SDS011;6062;47.294;12.182;2022-09-03T19:55:57;31.25;;;22.08;;
12005;SDS011;6062;47.294;12.182;2022-09-03T19:58:48;12.10;;;8.52;;
12005;SDS011;6062;47.294;12.182;2022-09-03T20:01:40;13.10;;;9.00;;
12005;SDS011;6062;47.294;12.182;2022-09-03T20:04:37;7.63;;;5.25;;
12005;SDS011;6062;47.294;12.182;2022-09-03T20:07:32;7.22;;;5.75;;
12005;SDS011;6062;47.294;12.182;2022-09-03T20:10:20;9.88;;;8.40;;
12005;SDS011;6062;47.294;12.182;2022-09-03T20:12:50;6.35;;;5.47;;
12005;SDS011;6062;47.294;12.182;2022-09-03T20:15:30;9.70;;;6.80;;
12005;SDS011;6062;47.294;12.182;2022-09-03T20:21:34;9.98;;;8.10;;
12005;SDS011;6062;47.294;12.182;2022-09-03T20:27:14;7.15;;;6.25;;
12005;SDS011;6062;47.294;12.182;2022-09-03T20:44:02;2.35;;;2.15;;
12005;SDS011;6062;47.294;12.182;2022-09-03T20:55:49;1.60;;;1.50;;
12005;SDS011;6062;47.294;12.182;2022-09-03T21:01:08;1.20;;;1.00;;
12005;SDS011;6062;47.294;12.182;2022-09-03T21:03:49;0.90;;;0.90;;
12005;SDS011;6062;47.294;12.182;2022-09-03T21:15:15;2.70;;;2.40;;
12005;SDS011;6062;47.294;12.182;2022-09-03T21:20:45;3.13;;;2.83;;
12005;SDS011;6062;47.294;12.182;2022-09-03T21:26:18;0.93;;;0.90;;
12005;SDS011;6062;47.294;12.182;2022-09-03T21:28:58;0.60;;;0.60;;
12005;SDS011;6062;47.294;12.182;2022-09-03T21:32:22;0.60;;;0.50;;
12005;SDS011;6062;47.294;12.182;2022-09-03T21:34:43;0.50;;;0.50;;
12005;SDS011;6062;47.294;12.182;2022-09-03T21:37:30;0.70;;;0.60;;
12005;SDS011;6062;47.294;12.182;2022-09-03T21:40:01;0.80;;;0.80;;
12005;SDS011;6062;47.294;12.182;2022-09-03T21:42:33;1.60;;;1.10;;
12005;SDS011;6062;47.294;12.182;2022-09-03T21:45:17;16.83;;;11.20;;
12005;SDS011;6062;47.294;12.182;2022-09-03T21:47:54;35.58;;;21.58;;